Flight Track Log - Related Links

Times and Time Zones

All times are in EDT time to prevent confusion due to time zone crossing. See the N143DE flight status page for this flight to view local times or setup timezone preferences in your user account.

Time Position Orientation Groundspeed Altitude Reporting Facility
EDT Latitude Longitude Course Direction KTS MPH feet Rate Location/Type
Wed 02:38:28 PM 35.2372 -97.4769 180° South 125 144 1,800  Level Fort Worth Center
Wed 02:38:58 PM 35.2164 -97.4769 180° South 143 165 2,700 1,856 Climbing Fort Worth Center
Wed 02:40:05 PM 35.1747 -97.4389 143° Southeast 199 229 4,800 1,820 Climbing Fort Worth Center
Wed 02:41:00 PM 35.1350 -97.4161 155° Southeast 184 212 6,400 2,017 Climbing Fort Worth Center
Wed 02:42:01 PM 35.0933 -97.3983 161° South 156 180 8,700 2,000 Climbing Fort Worth Center
Wed 02:43:00 PM 35.0536 -97.3703 150° Southeast 184 212 10,400 2,000 Climbing Fort Worth Center
Wed 02:43:01 PM 35.0494 -97.3678 154° Southeast 177 204 10,700 1,300 Climbing Fort Worth Center
Wed 02:44:00 PM 35.0142 -97.3400 147° Southeast 203 234 11,700 1,059 Climbing Fort Worth Center
Wed 02:45:00 PM 34.9514 -97.3478 186° South 208 239 12,800 1,150 Climbing Fort Worth Center
Wed 02:46:00 PM 34.8911 -97.3478 180° South 219 252 14,000 1,000 Climbing Fort Worth Center
Wed 02:47:00 PM 34.8306 -97.2972 146° Southeast 233 268 14,800 550 Climbing Fort Worth Center
Wed 02:48:00 PM 34.7678 -97.2467 147° Southeast 246 283 15,100 150 Climbing Fort Worth Center
Wed 02:49:00 PM 34.7031 -97.1911 145° Southeast 266 306 15,100  Level Fort Worth Center
Wed 02:50:00 PM 34.6342 -97.1308 144° Southeast 287 330 15,100  Level Fort Worth Center
Wed 02:51:00 PM 34.5672 -97.0781 147° Southeast 293 337 15,100  Level Fort Worth Center
Wed 02:52:00 PM 34.5003 -97.0231 146° Southeast 293 337 15,100  Level Fort Worth Center
Wed 02:53:00 PM 34.4333 -96.9653 145° Southeast 293 337 15,100  Level Fort Worth Center
Wed 02:54:00 PM 34.3644 -96.9103 147° Southeast 293 337 15,100  Level Fort Worth Center
Wed 02:55:00 PM 34.2972 -96.8556 146° Southeast 293 337 15,100  Level Fort Worth Center
Wed 02:56:00 PM 34.2303 -96.8006 146° Southeast 293 337 15,100 -550 Level Fort Worth Center
Wed 02:57:00 PM 34.1592 -96.7458 148° Southeast 299 344 14,000 -1,200 Descending Fort Worth Center
Wed 02:58:00 PM 34.0814 -96.6761 143° Southeast 313 360 12,700 -1,050 Descending Fort Worth Center
Wed 02:59:00 PM 33.9978 -96.6444 163° South 313 360 11,900 -800 Descending Fort Worth Center
Wed 03:00:00 PM 33.9203 -96.6100 160° South 313 360 11,100 -800 Descending Fort Worth Center
Wed 03:01:00 PM 33.8431 -96.5783 161° South 308 354 10,300 -550 Descending Fort Worth Center
Wed 03:02:00 PM 33.7656 -96.5464 161° South 303 349 10,000 -150 Descending Fort Worth Center
Wed 03:03:00 PM 33.6983 -96.5047 153° Southeast 280 322 10,000  Level Fort Worth Center
Wed 03:04:00 PM 33.6253 -96.4756 162° South 274 315 10,000 -300 Level Fort Worth Center
Wed 03:05:00 PM 33.5539 -96.4489 163° South 274 315 9,400 -750 Descending Fort Worth Center
Wed 03:06:00 PM 33.4828 -96.4222 163° South 269 310 8,500 -1,100 Descending Fort Worth Center
Wed 03:07:00 PM 33.4178 -96.3931 159° South 255 293 7,200 -1,250 Descending Fort Worth Center
Wed 03:08:00 PM 33.3489 -96.3714 165° South 248 285 6,000 -650 Descending Fort Worth Center
Wed 03:09:00 PM 33.2903 -96.3472 161° South 235 270 5,900 -250 Descending Fort Worth Center
Wed 03:10:00 PM 33.2444 -96.3828 213° Southwest 197 227 5,500 -450 Descending Fort Worth Center
Wed 03:11:00 PM 33.2117 -96.4450 238° Southwest 202 232 5,000 -250 Descending Fort Worth Center
Wed 03:12:00 PM 33.1786 -96.5025 236° Southwest 221 254 5,000 -350 Level Fort Worth Center
Wed 03:13:00 PM 33.1458 -96.5625 237° Southwest 221 254 4,300 -500 Descending Fort Worth Center
Wed 03:14:00 PM 33.1106 -96.6247 236° Southwest 221 254 4,000 -500 Descending Fort Worth Center
Wed 03:15:00 PM 33.0817 -96.6794 238° Southwest 216 249 3,300 -500 Descending Fort Worth Center
Wed 03:16:00 PM 33.0486 -96.7417 238° Southwest 216 249 3,000 -150 Descending Fort Worth Center
Wed 03:17:00 PM 33.0197 -96.7892 234° Southwest 211 243 3,000  Level Fort Worth Center
Wed 03:18:00 PM 32.9803 -96.8389 227° Southwest 199 229 3,000 -400 Level Fort Worth Center
Wed 03:19:00 PM 32.9469 -96.8786 225° Southwest 193 222 2,200 -550 Descending Fort Worth Center
Wed 03:20:00 PM 32.9094 -96.9011 207° Southwest 176 203 1,900 -627 Descending Fort Worth Center
Wed 03:21:14 PM 32.8667 -96.8667 146° Southeast 128 147 800 -892 Descending Dallas / Fort Worth TRACON
Wed 03:23:00 PM 32.8471 -96.8518 220° Southwest  Level Estimated
Wed 03:30:00 PM 32.8471 -96.8518 220° Southwest  Level Estimated

Login

Don't have an account? Register now (free) for customized features, flight alerts, and more!